Carolina, PR

1:35 PM AST on August 30, 2014 (GMT -0400)
Roosevelt Roads Ns | Change Station
CLOSE
Current Station
Airport
Location: Roosevelt Roads,
Elevation: 39 ft
Nearby Weather Stations

Elev 39 ft 18.26 °N, 65.64 °W | Updated 42 minutes ago

Mostly Cloudy
Mostly Cloudy
86 °F
Feels Like 97 °F
N
15
Wind Variable Wind from ESE

Today
High -- | Low -- °F
--% Chance of Precip.
Yesterday
High -- | Low -- °F
Precip. -- in
6:09 AM 6:39 PM
Waxing Crescent, 23% visible
Pressure 30.09 in
Visibility 10.0 miles
Clouds Scattered Clouds 1900 ft
Mostly Cloudy 7000 ft
Mostly Cloudy 8000 ft
Heat Index 97 °F
Dew Point 77 °F
Humidity 74%
Rainfall 0.01 in
Snow Depth Not available.
UV 7 out of 12
Pollen Not available.
Air Quality Not available.
Flu Activity Not available.
METAR TJNR 301653Z AUTO 12013KT 10SM SCT019 BKN070 BKN080 30/25 A3009 RMK AO2 SLP189 T03000250 $

More Conditions Fewer Conditions

Pressure 30.09 in
Visibility 10.0 miles
Clouds Scattered Clouds 1900 ft
Mostly Cloudy 7000 ft
Mostly Cloudy 8000 ft
Heat Index 97 °F
Dew Point 77 °F
Humidity 74%
Rainfall 0.01 in
Snow Depth Not available.
UV 7 out of 12
Pollen Not available.
Air Quality Not available.
Flu Activity Not available.
METAR TJNR 301653Z AUTO 12013KT 10SM SCT019 BKN070 BKN080 30/25 A3009 RMK AO2 SLP189 T03000250 $

More Conditions Fewer Conditions

10-Day Weather Forecast

Almanac

Astronomy

Aug. 30, 2014 Rise Set
Actual Time 6:09 AM AST 6:39 PM AST
Civil Twilight 5:46 AM AST 7:01 PM AST
Nautical Twilight 5:20 AM AST 7:27 PM AST
Astronomical Twilight 4:54 AM AST 7:53 PM AST
Moon 10:08 AM AST 9:57 PM AST
Length of Visible Light 13h 15m
Length of Day
12h 30m
Tomorrow will be 0m 59s shorter.
Waxing Crescent, 23% of the Moon is Illuminated
Today
Waxing Crescent
Sep 2
First Quarter
Sep 8
Full
Sep 15
Last Quarter
Sep 24
New

Community

WunderPhotos

Upload Photos

1,748,578 photos uploaded!

WunderBlogs® & News

Nearby

Snow Depth

Station Depth Elevation
No new snow has been reported.

Earthquake Activity

City Distance Mag. Time & Date
No recent earthquake activity has been reported nearby.
Minimum magnitude displayed is 2.5.

Coastal Water Temperatures

Place Temperature
San Juan, PR 84.9 °F
Mayaguez, PR 84.9 °F
Esperanza, PR 84.9 °F

Nearby Weather Stations